Terminal Aerodrome Forecast
Issued by NWS Brownsville, TX

Home | Current Version | Previous Version | Text Only | Print | Product List | Glossary On
Versions: 1 2 3 4 5 6 7 8 9 10 11 12 13 14 15 16 17 18 19 20 21 22 23 24 25 26 27 28 29 30 31
342
FTUS44 KBRO 271135
TAFMFE
TAF
KMFE 271135Z 2712/2812 04003KT P6SM SCT020
      TEMPO 2713/2715 BKN020
     FM271600 06005KT P6SM VCTS SCT035CB BKN050
     FM272200 08009KT P6SM SCT060 BKN200 PROB30 2722/2724 4SM TSRA
      BKN035CB
     FM280300 08004KT P6SM FEW040 SCT250=

USA.gov is the U.S. government's official web portal to all federal, state and local government web resources and services.